createdAt,value
2018-08-21T00:00:24.443Z,17.97
2018-08-21T00:01:24.468Z,17.98
2018-08-21T00:02:24.600Z,17.88
2018-08-21T00:03:24.618Z,17.86
2018-08-21T00:04:24.669Z,17.86
2018-08-21T00:05:24.517Z,17.93
2018-08-21T00:06:24.534Z,17.78
2018-08-21T00:07:24.669Z,17.79
2018-08-21T00:08:24.685Z,17.73
2018-08-21T00:09:24.750Z,17.87
2018-08-21T00:10:24.584Z,17.82
2018-08-21T00:11:24.875Z,17.78
2018-08-21T00:12:24.617Z,17.78
2018-08-21T00:13:24.628Z,17.68
2018-08-21T00:14:24.765Z,17.76
2018-08-21T00:15:24.653Z,17.60
2018-08-21T00:16:24.998Z,17.60
2018-08-21T00:17:24.688Z,17.59
2018-08-21T00:18:24.826Z,17.65
2018-08-21T00:19:24.710Z,17.54
2018-08-21T00:20:24.726Z,17.57
2018-08-21T00:21:24.886Z,17.59
2018-08-21T00:22:24.755Z,17.65
2018-08-21T00:23:24.889Z,17.54
2018-08-21T00:24:24.783Z,17.52
2018-08-21T00:25:24.918Z,17.54
2018-08-21T00:26:24.966Z,17.41
2018-08-21T00:27:24.860Z,17.54
2018-08-21T00:28:24.846Z,17.53
2018-08-21T00:29:24.846Z,17.41
2018-08-21T00:30:24.982Z,17.50
2018-08-21T00:31:24.961Z,17.35
2018-08-21T00:32:25.008Z,17.35
2018-08-21T00:33:24.901Z,17.38
2018-08-21T00:34:25.038Z,17.38
2018-08-21T00:35:24.923Z,17.44
2018-08-21T00:36:25.119Z,17.34
2018-08-21T00:37:25.077Z,17.34
2018-08-21T00:38:24.975Z,17.32
2018-08-21T00:39:24.978Z,17.34
2018-08-21T00:40:25.267Z,17.35
2018-08-21T00:41:25.011Z,17.30
2018-08-21T00:42:25.017Z,17.28
2018-08-21T00:43:25.156Z,17.22
2018-08-21T00:44:25.044Z,17.22
2018-08-21T00:45:25.230Z,17.19
2018-08-21T00:46:25.085Z,17.22
2018-08-21T00:47:25.246Z,17.12
2018-08-21T00:48:25.137Z,17.14
2018-08-21T00:49:25.240Z,17.12
2018-08-21T00:50:25.251Z,17.07
2018-08-21T00:51:25.139Z,17.07
2018-08-21T00:52:25.204Z,17.04
2018-08-21T00:53:25.395Z,17.07
2018-08-21T00:54:25.319Z,17.02
2018-08-21T00:55:25.210Z,16.94
2018-08-21T00:56:25.199Z,16.97
2018-08-21T00:57:25.223Z,16.99
2018-08-21T00:58:25.385Z,17.01
2018-08-21T00:59:25.253Z,16.92
2018-08-21T01:00:25.381Z,16.92
2018-08-21T01:01:25.270Z,16.92
2018-08-21T01:02:25.284Z,17.01
2018-08-21T01:03:25.302Z,17.07
2018-08-21T01:04:25.504Z,16.94
2018-08-21T01:05:25.322Z,16.89
2018-08-21T01:06:25.340Z,16.94
2018-08-21T01:07:25.474Z,16.91
2018-08-21T01:08:25.358Z,16.77
2018-08-21T01:09:25.480Z,16.77
2018-08-21T01:10:25.512Z,16.83
2018-08-21T01:11:25.410Z,16.87
2018-08-21T01:12:25.540Z,16.92
2018-08-21T01:13:25.559Z,16.87
2018-08-21T01:14:25.633Z,16.91
2018-08-21T01:15:25.458Z,16.89
2018-08-21T01:16:25.510Z,16.89
2018-08-21T01:17:25.482Z,16.87
2018-08-21T01:18:25.491Z,16.89
2018-08-21T01:19:25.603Z,16.91
2018-08-21T01:20:25.516Z,16.91
2018-08-21T01:21:25.659Z,16.82
2018-08-21T01:22:25.668Z,16.72
2018-08-21T01:23:25.553Z,16.73
2018-08-21T01:24:25.667Z,16.74
2018-08-21T01:25:25.581Z,16.68
2018-08-21T01:26:25.595Z,16.72
2018-08-21T01:27:25.622Z,16.64
2018-08-21T01:28:25.751Z,16.68
2018-08-21T01:29:25.814Z,16.68
2018-08-21T01:30:25.657Z,16.69
2018-08-21T01:31:25.672Z,16.66
2018-08-21T01:32:25.764Z,16.65
2018-08-21T01:33:25.700Z,16.62
2018-08-21T01:34:25.924Z,16.69
2018-08-21T01:35:25.717Z,16.66
2018-08-21T01:36:25.727Z,16.64
2018-08-21T01:37:25.869Z,16.61
2018-08-21T01:38:25.879Z,16.61
2018-08-21T01:39:26.045Z,16.55
2018-08-21T01:40:25.904Z,16.50
2018-08-21T01:41:25.791Z,16.51
2018-08-21T01:42:25.933Z,16.55
2018-08-21T01:43:25.945Z,16.58
2018-08-21T01:44:26.105Z,16.47
2018-08-21T01:45:25.844Z,16.62
2018-08-21T01:46:25.869Z,16.50
2018-08-21T01:47:25.915Z,16.62
2018-08-21T01:48:25.887Z,16.49
2018-08-21T01:49:26.173Z,16.55
2018-08-21T01:50:26.039Z,16.58
2018-08-21T01:51:25.914Z,16.44
2018-08-21T01:52:25.933Z,16.41
2018-08-21T01:53:26.084Z,16.34
2018-08-21T01:54:26.184Z,16.31
2018-08-21T01:55:26.104Z,16.34
2018-08-21T01:56:26.109Z,16.26
2018-08-21T01:57:26.003Z,16.31
2018-08-21T01:58:26.141Z,16.29
2018-08-21T01:59:26.199Z,16.22
2018-08-21T02:00:26.167Z,16.21
2018-08-21T02:01:26.051Z,16.16
2018-08-21T02:02:26.071Z,16.18
2018-08-21T02:03:26.205Z,16.24
2018-08-21T02:04:26.235Z,16.22
2018-08-21T02:05:26.103Z,16.16
2018-08-21T02:06:26.129Z,16.13
2018-08-21T02:07:26.131Z,16.13
2018-08-21T02:08:26.140Z,16.12
2018-08-21T02:09:26.308Z,16.12
2018-08-21T02:10:26.294Z,16.06
2018-08-21T02:11:26.300Z,16.05
2018-08-21T02:12:26.186Z,16.06
2018-08-21T02:13:26.216Z,15.92
2018-08-21T02:14:26.448Z,16.02
2018-08-21T02:15:26.227Z,15.92
2018-08-21T02:16:26.252Z,15.85
2018-08-21T02:17:26.384Z,15.83
2018-08-21T02:18:26.394Z,15.84
2018-08-21T02:19:26.562Z,15.75
2018-08-21T02:20:26.421Z,15.69
2018-08-21T02:21:26.436Z,15.66
2018-08-21T02:22:26.324Z,15.60
2018-08-21T02:23:26.328Z,15.62
2018-08-21T02:24:26.495Z,15.62
2018-08-21T02:25:26.389Z,15.65
2018-08-21T02:26:26.383Z,15.62
2018-08-21T02:27:26.512Z,15.63
2018-08-21T02:28:26.516Z,15.62
2018-08-21T02:29:26.455Z,15.52
2018-08-21T02:30:26.459Z,15.59
2018-08-21T02:31:26.432Z,15.63
2018-08-21T02:32:26.573Z,15.55
2018-08-21T02:33:26.578Z,15.39
2018-08-21T02:34:26.592Z,15.44
2018-08-21T02:35:26.484Z,15.44
2018-08-21T02:36:26.615Z,15.36
2018-08-21T02:37:26.515Z,15.29
2018-08-21T02:38:26.798Z,15.11
2018-08-21T02:39:26.539Z,15.14
2018-08-21T02:40:26.670Z,15.11
2018-08-21T02:41:26.686Z,15.14
2018-08-21T02:42:26.570Z,15.04
2018-08-21T02:43:26.737Z,15.04
2018-08-21T02:44:26.723Z,15.10
2018-08-21T02:45:26.596Z,15.04
2018-08-21T02:46:26.622Z,15.07
2018-08-21T02:47:26.622Z,14.96
2018-08-21T02:48:26.752Z,14.97
2018-08-21T02:49:26.658Z,14.97
2018-08-21T02:50:26.792Z,14.96
2018-08-21T02:51:26.681Z,14.99
2018-08-21T02:52:26.707Z,15.04
2018-08-21T02:53:26.868Z,15.12
2018-08-21T02:54:26.840Z,14.99
2018-08-21T02:55:26.743Z,14.90
2018-08-21T02:56:26.749Z,15.04
2018-08-21T02:57:26.757Z,14.93
2018-08-21T02:58:26.918Z,14.94
2018-08-21T02:59:26.782Z,15.02
2018-08-21T03:00:26.802Z,15.08
2018-08-21T03:01:26.800Z,14.99
2018-08-21T03:02:26.941Z,15.07
2018-08-21T03:03:26.923Z,15.04
2018-08-21T03:04:26.961Z,15.12
2018-08-21T03:05:26.848Z,15.07
2018-08-21T03:06:26.865Z,15.08
2018-08-21T03:07:26.880Z,15.00
2018-08-21T03:08:27.033Z,15.04
2018-08-21T03:09:27.028Z,15.07
2018-08-21T03:10:26.912Z,15.12
2018-08-21T03:11:27.088Z,15.10
2018-08-21T03:12:26.935Z,15.05
2018-08-21T03:13:27.223Z,14.97
2018-08-21T03:14:26.966Z,15.12
2018-08-21T03:15:27.014Z,15.14
2018-08-21T03:16:26.986Z,15.19
2018-08-21T03:17:26.997Z,15.19
2018-08-21T03:18:27.160Z,15.19
2018-08-21T03:19:27.025Z,15.30
2018-08-21T03:20:27.027Z,15.23
2018-08-21T03:21:27.057Z,15.26
2018-08-21T03:22:27.068Z,15.30
2018-08-21T03:23:27.247Z,15.23
2018-08-21T03:24:27.082Z,15.12
2018-08-21T03:25:27.089Z,15.18
2018-08-21T03:26:27.256Z,15.15
2018-08-21T03:27:27.237Z,15.12
2018-08-21T03:28:27.251Z,15.05
2018-08-21T03:29:27.144Z,15.12
2018-08-21T03:30:27.163Z,15.17
2018-08-21T03:31:27.309Z,15.17
2018-08-21T03:32:27.208Z,15.15
2018-08-21T03:33:27.235Z,15.15
2018-08-21T03:34:27.203Z,14.99
2018-08-21T03:35:27.203Z,15.07
2018-08-21T03:36:27.501Z,15.15
2018-08-21T03:37:27.236Z,15.02
2018-08-21T03:38:27.253Z,14.99
2018-08-21T03:39:27.263Z,14.97
2018-08-21T03:40:27.258Z,15.04
2018-08-21T03:41:27.556Z,15.07
2018-08-21T03:42:27.415Z,14.96
2018-08-21T03:43:27.302Z,14.93
2018-08-21T03:44:27.320Z,14.93
2018-08-21T03:45:27.328Z,14.87
2018-08-21T03:46:27.621Z,14.81
2018-08-21T03:47:27.495Z,14.77
2018-08-21T03:48:27.362Z,14.85
2018-08-21T03:49:27.498Z,14.81
2018-08-21T03:50:27.514Z,14.74
2018-08-21T03:51:27.594Z,14.78
2018-08-21T03:52:27.409Z,14.86
2018-08-21T03:53:27.544Z,14.71
2018-08-21T03:54:27.563Z,14.77
2018-08-21T03:55:27.436Z,14.70
2018-08-21T03:56:27.636Z,14.79
2018-08-21T03:57:27.620Z,14.74
2018-08-21T03:58:27.486Z,14.74
2018-08-21T03:59:27.531Z,14.79
2018-08-21T04:00:27.524Z,14.78
2018-08-21T04:01:27.513Z,14.73
2018-08-21T04:02:27.961Z,14.86
2018-08-21T04:03:27.553Z,14.81
2018-08-21T04:04:27.681Z,14.71
2018-08-21T04:05:27.577Z,14.67
2018-08-21T04:06:27.612Z,14.74
2018-08-21T04:07:27.635Z,14.74
2018-08-21T04:08:27.828Z,14.78
2018-08-21T04:09:27.733Z,14.79
2018-08-21T04:10:27.750Z,14.81
2018-08-21T04:11:27.656Z,14.73
2018-08-21T04:12:27.770Z,14.67
2018-08-21T04:13:27.807Z,14.67
2018-08-21T04:14:27.792Z,14.68
2018-08-21T04:15:27.679Z,14.71
2018-08-21T04:16:27.691Z,14.71
2018-08-21T04:17:27.832Z,14.70
2018-08-21T04:18:27.873Z,14.71
2018-08-21T04:19:27.731Z,14.74
2018-08-21T04:20:27.737Z,14.73
2018-08-21T04:21:27.879Z,14.78
2018-08-21T04:22:27.769Z,14.71
2018-08-21T04:23:27.977Z,14.73
2018-08-21T04:24:27.922Z,14.78
2018-08-21T04:25:27.800Z,14.70
2018-08-21T04:26:27.820Z,14.68
2018-08-21T04:27:27.819Z,14.74
2018-08-21T04:28:27.885Z,14.68
2018-08-21T04:29:27.969Z,14.62
2018-08-21T04:30:28.002Z,14.67
2018-08-21T04:31:27.866Z,14.51
2018-08-21T04:32:27.898Z,14.58
2018-08-21T04:33:28.020Z,14.63
2018-08-21T04:34:28.024Z,14.41
2018-08-21T04:35:27.921Z,14.48
2018-08-21T04:36:28.131Z,14.48
2018-08-21T04:37:27.937Z,14.48
2018-08-21T04:38:27.942Z,14.52
2018-08-21T04:39:28.083Z,14.48
2018-08-21T04:40:27.976Z,14.44
2018-08-21T04:41:28.260Z,14.48
2018-08-21T04:42:28.122Z,14.43
2018-08-21T04:43:28.136Z,14.41
2018-08-21T04:44:28.146Z,14.41
2018-08-21T04:45:28.030Z,14.41
2018-08-21T04:46:28.341Z,14.36
2018-08-21T04:47:28.073Z,14.30
2018-08-21T04:48:28.192Z,14.31
2018-08-21T04:49:28.078Z,14.34
2018-08-21T04:50:28.098Z,14.40
2018-08-21T04:51:28.245Z,14.31
2018-08-21T04:52:28.249Z,14.34
2018-08-21T04:53:28.122Z,14.28
2018-08-21T04:54:28.256Z,14.30
2018-08-21T04:55:28.150Z,14.38
2018-08-21T04:56:28.256Z,14.41
2018-08-21T04:57:28.170Z,14.31
2018-08-21T04:58:28.314Z,14.26
2018-08-21T04:59:28.321Z,14.31
2018-08-21T05:00:28.202Z,14.43
2018-08-21T05:01:28.380Z,14.34
2018-08-21T05:02:28.226Z,14.23
2018-08-21T05:03:28.259Z,14.15
2018-08-21T05:04:28.242Z,14.16
2018-08-21T05:05:28.387Z,14.18
2018-08-21T05:06:28.527Z,14.20
2018-08-21T05:07:28.411Z,14.23
2018-08-21T05:08:28.416Z,14.22
2018-08-21T05:09:28.309Z,14.25
2018-08-21T05:10:28.314Z,14.30
2018-08-21T05:11:28.607Z,14.26
2018-08-21T05:12:28.348Z,14.25
2018-08-21T05:13:28.477Z,14.28
2018-08-21T05:14:28.365Z,14.19
2018-08-21T05:15:28.501Z,14.15
2018-08-21T05:16:28.554Z,14.11
2018-08-21T05:17:28.527Z,14.05
2018-08-21T05:18:28.415Z,14.03
2018-08-21T05:19:28.423Z,14.05
2018-08-21T05:20:28.436Z,14.01
2018-08-21T05:21:28.721Z,14.00
2018-08-21T05:22:28.463Z,13.87
2018-08-21T05:23:28.593Z,13.89
2018-08-21T05:24:28.477Z,13.95
2018-08-21T05:25:28.488Z,13.91
2018-08-21T05:26:28.781Z,13.95
2018-08-21T05:27:28.507Z,14.00
2018-08-21T05:28:28.586Z,14.13
2018-08-21T05:29:28.542Z,14.05
2018-08-21T05:30:28.545Z,14.11
2018-08-21T05:31:28.783Z,14.11
2018-08-21T05:32:28.573Z,14.15
2018-08-21T05:33:28.707Z,14.19
2018-08-21T05:34:28.716Z,14.19
2018-08-21T05:35:28.730Z,14.20
2018-08-21T05:36:28.766Z,14.20
2018-08-21T05:37:28.750Z,14.12
2018-08-21T05:38:28.636Z,14.16
2018-08-21T05:39:28.651Z,14.13
2018-08-21T05:40:28.784Z,14.04
2018-08-21T05:41:28.827Z,14.08
2018-08-21T05:42:28.683Z,14.04
2018-08-21T05:43:28.822Z,14.16
2018-08-21T05:44:28.709Z,14.23
2018-08-21T05:45:28.840Z,14.25
2018-08-21T05:46:28.883Z,14.23
2018-08-21T05:47:28.866Z,14.23
2018-08-21T05:48:28.750Z,14.22
2018-08-21T05:49:28.893Z,14.34
2018-08-21T05:50:28.776Z,14.34
2018-08-21T05:51:28.978Z,14.37
2018-08-21T05:52:28.809Z,14.36
2018-08-21T05:53:28.808Z,14.31
2018-08-21T05:54:28.943Z,14.34
2018-08-21T05:55:29.055Z,14.33
2018-08-21T05:56:28.998Z,14.30
2018-08-21T05:57:28.857Z,14.34
2018-08-21T05:58:28.863Z,14.28
2018-08-21T05:59:29.007Z,14.34
2018-08-21T06:00:29.011Z,14.31
2018-08-21T06:01:29.051Z,14.28
2018-08-21T06:02:29.040Z,14.23
2018-08-21T06:03:29.053Z,14.30
2018-08-21T06:04:29.060Z,14.26
2018-08-21T06:05:28.951Z,14.22
2018-08-21T06:06:28.958Z,14.28
2018-08-21T06:07:29.246Z,14.20
2018-08-21T06:08:28.983Z,14.25
2018-08-21T06:09:28.992Z,14.37
2018-08-21T06:10:29.001Z,14.36
2018-08-21T06:11:29.146Z,14.36
2018-08-21T06:12:29.081Z,14.33
2018-08-21T06:13:29.170Z,14.30
2018-08-21T06:14:29.056Z,14.38
2018-08-21T06:15:29.069Z,14.41
2018-08-21T06:16:29.085Z,14.28
2018-08-21T06:17:29.310Z,14.31
2018-08-21T06:18:29.107Z,14.25
2018-08-21T06:19:29.235Z,14.28
2018-08-21T06:20:29.245Z,14.25
2018-08-21T06:21:29.138Z,14.31
2018-08-21T06:22:29.426Z,14.31
2018-08-21T06:23:29.165Z,14.31
2018-08-21T06:24:29.292Z,14.41
2018-08-21T06:25:29.185Z,14.30
2018-08-21T06:26:29.193Z,14.31
2018-08-21T06:27:29.355Z,14.30
2018-08-21T06:28:29.218Z,14.30
2018-08-21T06:29:29.237Z,14.36
2018-08-21T06:30:29.234Z,14.30
2018-08-21T06:31:29.267Z,14.31
2018-08-21T06:32:29.535Z,14.33
2018-08-21T06:33:29.278Z,14.34
2018-08-21T06:34:29.292Z,14.30
2018-08-21T06:35:29.293Z,14.26
2018-08-21T06:36:29.321Z,14.25
2018-08-21T06:37:29.518Z,14.30
2018-08-21T06:38:29.332Z,14.26
2018-08-21T06:39:29.351Z,14.19
2018-08-21T06:40:29.477Z,14.28
2018-08-21T06:41:29.494Z,14.19
2018-08-21T06:42:29.526Z,14.30
2018-08-21T06:43:29.390Z,14.23
2018-08-21T06:44:29.417Z,14.25
2018-08-21T06:45:29.539Z,14.23
2018-08-21T06:46:29.471Z,14.16
2018-08-21T06:47:29.540Z,14.22
2018-08-21T06:48:29.572Z,14.20
2018-08-21T06:49:29.464Z,14.25
2018-08-21T06:50:29.502Z,14.23
2018-08-21T06:51:29.509Z,14.23
2018-08-21T06:52:29.551Z,14.18
2018-08-21T06:53:29.505Z,14.15
2018-08-21T06:54:29.645Z,14.20
2018-08-21T06:55:29.641Z,14.22
2018-08-21T06:56:29.537Z,14.23
2018-08-21T06:57:29.554Z,14.25
2018-08-21T06:58:29.562Z,14.23
2018-08-21T06:59:29.591Z,14.20
2018-08-21T07:00:29.732Z,14.13
2018-08-21T07:01:29.717Z,14.13
2018-08-21T07:02:29.605Z,14.20
2018-08-21T07:03:29.617Z,14.25
2018-08-21T07:04:29.754Z,14.07
2018-08-21T07:05:29.808Z,14.11
2018-08-21T07:06:29.641Z,14.12
2018-08-21T07:07:29.659Z,14.13
2018-08-21T07:08:29.668Z,14.08
2018-08-21T07:09:29.807Z,14.00
2018-08-21T07:10:29.924Z,14.00
2018-08-21T07:11:29.833Z,14.04
2018-08-21T07:12:29.718Z,14.01
2018-08-21T07:13:29.731Z,14.01
2018-08-21T07:14:29.839Z,14.00
2018-08-21T07:15:29.932Z,14.08
2018-08-21T07:16:29.767Z,14.03
2018-08-21T07:17:29.778Z,13.98
2018-08-21T07:18:29.782Z,14.01
2018-08-21T07:19:29.802Z,14.00
2018-08-21T07:20:30.086Z,14.08
2018-08-21T07:21:29.840Z,14.00
2018-08-21T07:22:29.846Z,13.97
2018-08-21T07:23:29.976Z,13.98
2018-08-21T07:24:29.856Z,13.97
2018-08-21T07:25:29.968Z,14.00
2018-08-21T07:26:30.007Z,13.98
2018-08-21T07:27:30.019Z,13.89
2018-08-21T07:28:29.899Z,13.93
2018-08-21T07:29:29.913Z,13.80
2018-08-21T07:30:30.198Z,13.79
2018-08-21T07:31:29.939Z,13.75
2018-08-21T07:32:29.960Z,13.76
2018-08-21T07:33:29.978Z,13.71
2018-08-21T07:34:30.097Z,13.62
2018-08-21T07:35:30.120Z,13.61
2018-08-21T07:36:30.118Z,13.54
2018-08-21T07:37:30.004Z,13.52
2018-08-21T07:38:30.017Z,13.52
2018-08-21T07:39:30.172Z,13.45
2018-08-21T07:40:30.038Z,13.49
2018-08-21T07:41:30.056Z,13.52
2018-08-21T07:42:30.100Z,13.61
2018-08-21T07:43:30.076Z,13.61
2018-08-21T07:44:30.190Z,13.58
2018-08-21T07:45:30.219Z,13.64
2018-08-21T07:46:30.191Z,13.68
2018-08-21T07:47:30.129Z,13.78
2018-08-21T07:48:30.251Z,13.68
2018-08-21T07:49:30.289Z,13.79
2018-08-21T07:50:30.163Z,13.78
2018-08-21T07:51:30.168Z,13.75
2018-08-21T07:52:30.177Z,13.87
2018-08-21T07:53:30.179Z,13.82
2018-08-21T07:54:30.312Z,13.89
2018-08-21T07:55:30.213Z,13.91
2018-08-21T07:56:30.225Z,14.01
2018-08-21T07:57:30.359Z,14.01
2018-08-21T07:58:30.370Z,14.01
2018-08-21T07:59:30.534Z,14.05
2018-08-21T08:00:30.260Z,14.04
2018-08-21T08:01:30.401Z,13.97
2018-08-21T08:02:30.288Z,14.00
2018-08-21T08:03:30.300Z,14.04
2018-08-21T08:04:30.404Z,14.01
2018-08-21T08:05:30.327Z,13.87
2018-08-21T08:06:30.345Z,13.93
2018-08-21T08:07:30.349Z,13.75
2018-08-21T08:08:30.417Z,13.73
2018-08-21T08:09:30.516Z,13.71
2018-08-21T08:10:30.371Z,13.76
2018-08-21T08:11:30.415Z,13.80
2018-08-21T08:12:30.524Z,13.86
2018-08-21T08:13:30.441Z,13.85
2018-08-21T08:14:30.523Z,13.82
2018-08-21T08:15:30.560Z,13.83
2018-08-21T08:16:30.445Z,13.85
2018-08-21T08:17:30.580Z,13.86
2018-08-21T08:18:30.465Z,13.75
2018-08-21T08:19:30.758Z,13.83
2018-08-21T08:20:30.498Z,13.82
2018-08-21T08:21:30.532Z,13.79
2018-08-21T08:22:30.509Z,13.75
2018-08-21T08:23:30.602Z,13.82
2018-08-21T08:24:30.578Z,13.70
2018-08-21T08:25:30.554Z,13.80
2018-08-21T08:26:30.560Z,13.79
2018-08-21T08:27:30.583Z,13.75
2018-08-21T08:28:30.582Z,13.75
2018-08-21T08:29:30.691Z,13.73
2018-08-21T08:30:30.613Z,13.73
2018-08-21T08:31:30.620Z,13.57
2018-08-21T08:32:30.636Z,13.57
2018-08-21T08:33:30.632Z,13.61
2018-08-21T08:34:30.752Z,13.57
2018-08-21T08:35:30.786Z,13.58
2018-08-21T08:36:30.797Z,13.55
2018-08-21T08:37:30.676Z,13.55
2018-08-21T08:38:30.700Z,13.49
2018-08-21T08:39:30.982Z,13.50
2018-08-21T08:40:30.927Z,13.58
2018-08-21T08:41:30.861Z,13.50
2018-08-21T08:42:30.740Z,13.57
2018-08-21T08:43:30.872Z,13.52
2018-08-21T08:44:30.937Z,13.54
2018-08-21T08:45:30.762Z,13.55
2018-08-21T08:46:30.783Z,13.50
2018-08-21T08:47:30.836Z,13.42
2018-08-21T08:48:30.928Z,13.46
2018-08-21T08:49:30.962Z,13.42
2018-08-21T08:50:30.828Z,13.43
2018-08-21T08:51:30.839Z,13.37
2018-08-21T08:52:30.854Z,13.47
2018-08-21T08:53:30.978Z,13.45
2018-08-21T08:54:30.965Z,13.31
2018-08-21T08:55:31.002Z,13.43
2018-08-21T08:56:30.891Z,13.42
2018-08-21T08:57:30.948Z,13.55
2018-08-21T08:58:30.948Z,13.46
2018-08-21T08:59:31.145Z,13.42
2018-08-21T09:00:30.983Z,13.46
2018-08-21T09:01:30.956Z,13.37
2018-08-21T09:02:31.097Z,13.46
2018-08-21T09:03:31.088Z,13.46
2018-08-21T09:04:31.085Z,13.45
2018-08-21T09:05:30.991Z,13.50
2018-08-21T09:06:31.000Z,13.55
2018-08-21T09:07:31.132Z,13.43
2018-08-21T09:08:31.016Z,13.49
2018-08-21T09:09:31.260Z,13.60
2018-08-21T09:10:31.077Z,13.54
2018-08-21T09:11:31.046Z,13.52
2018-08-21T09:12:31.074Z,13.62
2018-08-21T09:13:31.199Z,13.60
2018-08-21T09:14:31.079Z,13.50
2018-08-21T09:15:31.155Z,13.54
2018-08-21T09:16:31.225Z,13.60
2018-08-21T09:17:31.211Z,13.54
2018-08-21T09:18:31.122Z,13.52
2018-08-21T09:19:31.262Z,13.57
2018-08-21T09:20:31.367Z,13.55
2018-08-21T09:21:31.161Z,13.55
2018-08-21T09:22:31.168Z,13.57
2018-08-21T09:23:31.175Z,13.62
2018-08-21T09:24:31.193Z,13.57
2018-08-21T09:25:31.308Z,13.55
2018-08-21T09:26:31.359Z,13.39
2018-08-21T09:27:31.372Z,13.42
2018-08-21T09:28:31.226Z,13.43
2018-08-21T09:29:31.300Z,13.42
2018-08-21T09:30:31.489Z,13.46
2018-08-21T09:32:31.275Z,13.42
2018-08-21T09:37:31.341Z,13.28
2018-08-21T09:38:31.381Z,13.37
2018-08-21T09:39:31.357Z,13.43
2018-08-21T09:40:31.408Z,13.33
2018-08-21T09:41:31.579Z,13.40
2018-08-21T09:42:31.383Z,13.37
2018-08-21T09:43:31.448Z,13.42
2018-08-21T09:44:31.532Z,13.33
2018-08-21T09:45:31.548Z,13.39
2018-08-21T09:46:31.523Z,13.43
2018-08-21T09:47:31.444Z,13.37
2018-08-21T09:48:31.449Z,13.31
2018-08-21T09:49:31.461Z,13.33
2018-08-21T09:50:31.476Z,13.37
2018-08-21T09:51:31.709Z,13.46
2018-08-21T09:52:31.496Z,13.47
2018-08-21T09:53:31.495Z,13.62
2018-08-21T09:54:31.513Z,13.68
2018-08-21T09:55:31.515Z,13.73
2018-08-21T09:56:31.967Z,13.97
2018-08-21T09:57:31.550Z,14.11
2018-08-21T09:58:31.565Z,14.20
2018-08-21T09:59:31.701Z,14.45
2018-08-21T10:00:31.589Z,14.73
2018-08-21T10:01:31.875Z,14.92
2018-08-21T10:02:31.603Z,15.15
2018-08-21T10:03:31.618Z,15.41
2018-08-21T10:04:31.637Z,15.65
2018-08-21T10:10:31.834Z,16.79
2018-08-21T10:11:31.764Z,16.92
2018-08-21T10:12:31.738Z,17.01
2018-08-21T10:13:31.895Z,17.07
2018-08-21T10:14:31.888Z,17.14
2018-08-21T10:15:31.903Z,17.17
2018-08-21T10:16:31.917Z,17.12
2018-08-21T10:17:31.801Z,17.12
2018-08-21T10:18:31.924Z,17.17
2018-08-21T10:19:31.828Z,17.19
2018-08-21T10:20:31.848Z,17.19
2018-08-21T10:21:31.865Z,17.27
2018-08-21T10:22:31.997Z,17.24
2018-08-21T10:23:31.977Z,17.28
2018-08-21T10:24:32.029Z,17.30
2018-08-21T10:25:31.933Z,17.27
2018-08-21T10:26:31.926Z,17.17
2018-08-21T10:27:31.952Z,17.16
2018-08-21T10:28:32.068Z,17.19
2018-08-21T10:29:32.101Z,17.30
2018-08-21T10:30:32.112Z,17.30
2018-08-21T10:31:32.022Z,17.39
2018-08-21T10:32:32.144Z,17.54
2018-08-21T10:33:32.127Z,17.54
2018-08-21T10:34:32.050Z,17.60
2018-08-21T10:35:32.186Z,17.60
2018-08-21T10:36:32.197Z,17.68
2018-08-21T10:37:32.084Z,17.63
2018-08-21T10:38:32.377Z,17.57
2018-08-21T10:39:32.241Z,17.54
2018-08-21T10:40:32.132Z,17.47
2018-08-21T10:41:32.144Z,17.41
2018-08-21T10:42:32.286Z,17.39
2018-08-21T10:43:32.449Z,17.37
2018-08-21T10:44:32.318Z,17.31
2018-08-21T10:45:32.332Z,17.32
2018-08-21T10:46:32.234Z,17.28
2018-08-21T10:47:32.227Z,17.20
2018-08-21T10:48:32.468Z,17.19
2018-08-21T10:49:32.276Z,17.20
2018-08-21T10:50:32.272Z,17.10
2018-08-21T10:51:32.417Z,17.12
2018-08-21T10:52:32.300Z,17.09
2018-08-21T10:53:32.442Z,17.07
2018-08-21T10:54:32.462Z,17.07
2018-08-21T10:55:32.478Z,17.07
2018-08-21T10:56:32.377Z,17.05
2018-08-21T10:57:32.373Z,17.05
2018-08-21T10:58:32.503Z,17.09
2018-08-21T10:59:32.404Z,17.02
2018-08-21T11:00:32.539Z,17.16
2018-08-21T11:01:32.558Z,17.41
2018-08-21T11:02:32.567Z,17.78
2018-08-21T11:03:32.713Z,18.19
2018-08-21T11:04:32.466Z,18.68
2018-08-21T11:05:32.483Z,19.20
2018-08-21T11:06:32.628Z,19.66
2018-08-21T11:07:32.637Z,20.12
2018-08-21T11:08:32.909Z,20.64
2018-08-21T11:09:32.554Z,21.03
2018-08-21T11:10:32.685Z,21.44
2018-08-21T11:11:32.582Z,21.81
2018-08-21T11:12:32.748Z,22.16
2018-08-21T11:13:32.989Z,22.49
2018-08-21T11:14:32.748Z,22.83
2018-08-21T11:15:32.659Z,23.18
2018-08-21T11:16:32.656Z,23.54
2018-08-21T11:17:32.707Z,23.67
2018-08-21T11:18:32.967Z,23.79
2018-08-21T11:19:32.711Z,23.95
2018-08-21T11:20:32.858Z,24.03
2018-08-21T11:21:32.796Z,24.11
2018-08-21T11:22:32.891Z,24.31
2018-08-21T11:23:32.937Z,24.36
2018-08-21T11:24:32.924Z,24.53
2018-08-21T11:25:32.947Z,24.63
2018-08-21T11:26:32.845Z,24.71
2018-08-21T11:27:32.852Z,24.93
2018-08-21T11:28:33.081Z,25.00
2018-08-21T11:29:32.941Z,25.12
2018-08-21T11:30:33.029Z,25.19
2018-08-21T11:31:33.056Z,25.29
2018-08-21T11:32:32.953Z,25.29
2018-08-21T11:33:33.222Z,25.14
2018-08-21T11:34:33.018Z,25.18
2018-08-21T11:35:33.012Z,25.18
2018-08-21T11:36:33.017Z,25.19
2018-08-21T11:37:33.161Z,25.06
2018-08-21T11:38:33.198Z,24.97
2018-08-21T11:39:33.085Z,24.94
2018-08-21T11:40:33.218Z,25.01
2018-08-21T11:41:33.115Z,25.12
2018-08-21T11:42:33.255Z,25.21
2018-08-21T11:43:33.404Z,25.29
2018-08-21T11:44:33.315Z,25.36
2018-08-21T11:45:33.307Z,25.29
2018-08-21T11:46:33.215Z,25.43
2018-08-21T11:47:33.215Z,25.52
2018-08-21T11:48:33.620Z,25.52
2018-08-21T11:49:33.385Z,25.51
2018-08-21T11:50:33.321Z,25.52
2018-08-21T11:51:33.429Z,25.46
2018-08-21T11:52:33.326Z,25.24
2018-08-21T11:53:33.591Z,25.44
2018-08-21T11:54:33.363Z,25.29
2018-08-21T11:55:33.497Z,25.33
2018-08-21T11:56:33.393Z,25.26
2018-08-21T11:57:33.421Z,25.29
2018-08-21T11:58:33.539Z,25.12
2018-08-21T11:59:33.463Z,25.04
2018-08-21T12:00:33.597Z,25.01
2018-08-21T12:01:33.619Z,25.06
2018-08-21T12:02:33.629Z,25.03
2018-08-21T12:03:33.756Z,24.96
2018-08-21T12:04:33.545Z,24.84
2018-08-21T12:05:33.569Z,24.63
2018-08-21T12:06:33.581Z,24.65
2018-08-21T12:07:33.597Z,24.59
2018-08-21T12:08:33.894Z,24.46
2018-08-21T12:09:33.644Z,24.38
2018-08-21T12:10:33.779Z,24.32
2018-08-21T12:11:33.671Z,24.29
2018-08-21T12:12:33.699Z,24.11
2018-08-21T12:13:33.988Z,24.11
2018-08-21T12:14:33.733Z,24.10
2018-08-21T12:15:33.871Z,24.06
2018-08-21T12:16:33.891Z,23.99
2018-08-21T12:17:33.787Z,24.04
2018-08-21T12:18:33.927Z,23.92
2018-08-21T12:19:34.094Z,23.89
2018-08-21T12:20:33.966Z,23.92
2018-08-21T12:21:33.862Z,24.03
2018-08-21T12:22:34.003Z,23.99
2018-08-21T12:23:34.020Z,23.89
2018-08-21T12:24:34.012Z,23.79
2018-08-21T12:25:34.057Z,23.71
2018-08-21T12:26:34.073Z,23.69
2018-08-21T12:27:33.972Z,23.63
2018-08-21T12:28:33.991Z,23.74
2018-08-21T12:29:34.126Z,23.67
2018-08-21T12:30:34.026Z,23.82
2018-08-21T12:31:34.038Z,23.92
2018-08-21T12:32:34.179Z,24.00
2018-08-21T12:33:34.203Z,24.09
2018-08-21T12:34:34.246Z,24.10
2018-08-21T12:35:34.239Z,24.21
2018-08-21T12:36:34.251Z,24.18
2018-08-21T12:37:34.158Z,24.29
2018-08-21T12:38:34.160Z,24.25
2018-08-21T12:39:34.334Z,24.36
2018-08-21T12:40:34.321Z,24.32
2018-08-21T12:41:34.344Z,24.37
2018-08-21T12:42:34.238Z,24.22
2018-08-21T12:43:34.377Z,24.29
2018-08-21T12:44:34.325Z,24.32
2018-08-21T12:45:34.415Z,24.38
2018-08-21T12:46:34.429Z,24.46
2018-08-21T12:47:34.329Z,24.36
2018-08-21T12:48:34.359Z,24.43
2018-08-21T12:49:34.556Z,24.37
2018-08-21T12:50:34.561Z,24.43
2018-08-21T12:51:34.518Z,24.31
2018-08-21T12:52:34.406Z,24.26
2018-08-21T12:53:34.439Z,24.36
2018-08-21T12:54:34.670Z,24.29
2018-08-21T12:55:34.518Z,24.24
2018-08-21T12:56:34.488Z,24.14
2018-08-21T12:57:34.626Z,24.19
2018-08-21T12:58:34.565Z,24.13
2018-08-21T12:59:34.906Z,24.14
2018-08-21T13:00:34.591Z,24.06
2018-08-21T13:01:34.694Z,24.04
2018-08-21T13:02:34.712Z,24.00